West Palm Beach, FL (33406)

7:23 PM EDT on September 04, 2015 (GMT -0400)
LCS Police HQ / EOC | | Change Station
CLOSE
Current Station
Personal Weather Station
Location: Lake Clarke Shores, FL
Elevation: 30 ft
Nearby Weather Stations

Elev 30 ft 26.65 °N, 80.08 °W | Updated 13 seconds ago

Mostly Cloudy
Mostly Cloudy
22.2 °F
Feels Like 22.2 °F
N
0.0
Wind Variable Wind from NNE
Gusts 0.0 mph

Today
High -- | Low -- °F
--% Chance of Precip.
Yesterday
High -- | Low -- °F
Precip. -- in
7:01 AM 7:37 PM
Waning Gibbous, 55% visible
Pressure 29.95 in
Visibility 10.0 miles
Clouds Scattered Clouds 3800 ft
Scattered Clouds 14000 ft
Mostly Cloudy 25000 ft
Dew Point 14.1 °F
Humidity 70%
Rainfall 0.00 in
Snow Depth Not available.
UV 0 out of 12
Pollen 3.60 out of 12
Air Quality Not available.
Flu Activity Not available.
METAR KPBI 042253Z 00000KT 10SM SCT038 SCT140 BKN250 27/22 A2995 RMK AO2 SLP141 CB DSNT W T02720217
Pressure 29.95 in
Visibility 10.0 miles
Clouds Scattered Clouds 3800 ft
Scattered Clouds 14000 ft
Mostly Cloudy 25000 ft
Dew Point 14.1 °F
Humidity 70%
Rainfall 0.00 in
Snow Depth Not available.
UV 0 out of 12
Pollen 3.60 out of 12
Air Quality Not available.
Flu Activity Not available.
METAR KPBI 042253Z 00000KT 10SM SCT038 SCT140 BKN250 27/22 A2995 RMK AO2 SLP141 CB DSNT W T02720217

10-Day Weather Forecast

×

Almanac

Astronomy

Sep. 04, 2015 Rise Set
Actual Time
Civil Twilight
Nautical Twilight
Astronomical Twilight
Moon
Length of Visible Light
Length of Day
Tomorrow will be .
, % of the Moon is Illuminated

Today's Extremes

State Highs State Lows

Community

WunderPhotos

Upload Photos

1,852,332 photos uploaded!

WunderBlogs® & News

Nearby

Air Quality

  Air Quality AQ Index Pollutant
Not available.

Snow Depth

Station Depth Elevation

Earthquake Activity

City Distance Mag. Time & Date
Minimum magnitude displayed is 2.5.

Coastal Water Temperatures

Place Temperature

Stations

Nearby Weather Stations

Station Location Temp. Windchill Dew Point Humidity Wind Precip. Elev Updated Type